createdAt,value
2023-04-09T00:00:49.262Z,101740.34
2023-04-09T00:03:20.919Z,101744.72
2023-04-09T00:05:49.631Z,101738.72
2023-04-09T00:08:17.038Z,101737.22
2023-04-09T00:10:47.124Z,101739.22
2023-04-09T00:13:17.000Z,101746.88
2023-04-09T00:15:47.963Z,101739.56
2023-04-09T00:18:19.150Z,101741.47
2023-04-09T00:20:46.648Z,101744.00
2023-04-09T00:23:14.076Z,101750.75
2023-04-09T00:25:41.945Z,101742.59
2023-04-09T00:28:09.379Z,101739.22
2023-04-09T00:30:37.924Z,101741.41
2023-04-09T00:33:06.222Z,101744.31
2023-04-09T00:35:34.360Z,101740.00
2023-04-09T00:38:01.790Z,101740.16
2023-04-09T00:40:29.461Z,101734.50
2023-04-09T00:42:57.354Z,101739.72
2023-04-09T00:45:24.992Z,101742.78
2023-04-09T00:47:53.537Z,101742.16
2023-04-09T00:50:21.931Z,101748.91
2023-04-09T00:52:50.746Z,101747.47
2023-04-09T00:55:18.866Z,101745.63
2023-04-09T00:57:46.981Z,101743.16
2023-04-09T01:00:15.527Z,101748.69
2023-04-09T01:02:53.264Z,101761.50
2023-04-09T01:05:21.816Z,101758.22
2023-04-09T01:08:14.678Z,101757.38
2023-04-09T01:10:48.009Z,101764.25
2023-04-09T01:13:35.402Z,101757.84
2023-04-09T01:16:03.941Z,101748.44
2023-04-09T01:18:38.542Z,101753.91
2023-04-09T01:21:19.407Z,101760.97
2023-04-09T01:24:08.854Z,101756.59
2023-04-09T01:27:03.299Z,101759.28
2023-04-09T01:29:33.899Z,101760.28
2023-04-09T01:32:06.025Z,101759.44
2023-04-09T01:34:36.737Z,101754.59
2023-04-09T01:37:05.602Z,101748.06
2023-04-09T01:39:33.339Z,101761.22
2023-04-09T01:42:03.960Z,101758.91
2023-04-09T01:44:32.723Z,101752.75
2023-04-09T01:47:01.631Z,101753.50
2023-04-09T01:49:29.858Z,101754.16
2023-04-09T01:51:57.774Z,101747.28
2023-04-09T01:54:25.348Z,101748.53
2023-04-09T01:56:52.797Z,101750.31
2023-04-09T01:59:22.902Z,101750.47
2023-04-09T02:01:55.368Z,101751.75
2023-04-09T02:04:41.689Z,101749.81
2023-04-09T02:07:14.808Z,101754.28
2023-04-09T02:09:46.468Z,101754.44
2023-04-09T02:12:17.708Z,101753.88
2023-04-09T02:14:52.423Z,101757.16
2023-04-09T02:17:20.254Z,101753.09
2023-04-09T02:19:48.305Z,101762.81
2023-04-09T02:22:17.378Z,101750.91
2023-04-09T02:24:46.992Z,101759.13
2023-04-09T02:27:14.595Z,101762.81
2023-04-09T02:29:43.746Z,101762.38
2023-04-09T02:32:11.628Z,101763.22
2023-04-09T02:34:44.427Z,101758.50
2023-04-09T02:37:11.847Z,101758.50
2023-04-09T02:39:39.439Z,101769.78
2023-04-09T02:42:09.754Z,101768.19
2023-04-09T02:44:38.019Z,101775.94
2023-04-09T02:47:09.338Z,101787.91
2023-04-09T02:49:37.998Z,101788.31
2023-04-09T02:52:05.735Z,101792.19
2023-04-09T02:54:33.343Z,101801.28
2023-04-09T02:57:01.706Z,101792.84
2023-04-09T02:59:29.501Z,101798.91
2023-04-09T03:01:57.025Z,101795.38
2023-04-09T03:04:24.588Z,101796.41
2023-04-09T03:06:51.989Z,101795.91
2023-04-09T03:09:27.574Z,101787.88
2023-04-09T03:11:57.400Z,101793.50
2023-04-09T03:14:25.113Z,101802.34
2023-04-09T03:16:56.135Z,101793.56
2023-04-09T03:19:23.537Z,101806.34
2023-04-09T03:21:51.488Z,101797.56
2023-04-09T03:24:18.955Z,101794.78
2023-04-09T03:26:46.470Z,101796.53
2023-04-09T03:29:17.203Z,101791.47
2023-04-09T03:31:45.768Z,101794.16
2023-04-09T03:34:13.242Z,101796.84
2023-04-09T03:36:40.685Z,101807.28
2023-04-09T03:39:08.206Z,101805.44
2023-04-09T03:41:35.884Z,101804.41
2023-04-09T03:44:03.779Z,101811.75
2023-04-09T03:46:31.651Z,101808.59
2023-04-09T03:48:59.455Z,101815.59
2023-04-09T03:51:27.339Z,101816.28
2023-04-09T03:53:56.818Z,101822.28
2023-04-09T03:56:24.280Z,101825.88
2023-04-09T03:58:51.970Z,101831.47
2023-04-09T04:01:19.661Z,101824.16
2023-04-09T04:03:47.130Z,101820.47
2023-04-09T04:06:18.905Z,101821.72
2023-04-09T04:08:46.657Z,101825.56
2023-04-09T04:11:14.048Z,101822.81
2023-04-09T04:13:47.944Z,101827.94
2023-04-09T04:16:16.140Z,101831.25
2023-04-09T04:18:43.551Z,101835.72
2023-04-09T04:21:15.835Z,101832.63
2023-04-09T04:23:54.819Z,101835.38
2023-04-09T04:26:25.046Z,101841.00
2023-04-09T04:28:53.257Z,101833.28
2023-04-09T04:31:20.779Z,101845.75
2023-04-09T04:33:48.342Z,101850.28
2023-04-09T04:36:16.141Z,101839.16
2023-04-09T04:38:45.656Z,101846.91
2023-04-09T04:41:13.429Z,101834.91
2023-04-09T04:43:41.614Z,101849.69
2023-04-09T04:46:09.202Z,101849.47
2023-04-09T04:48:37.110Z,101847.06
2023-04-09T04:51:04.947Z,101853.50
2023-04-09T04:53:32.464Z,101858.97
2023-04-09T04:55:59.903Z,101853.50
2023-04-09T04:58:27.307Z,101855.50
2023-04-09T05:00:54.997Z,101858.03
2023-04-09T05:03:23.250Z,101854.00
2023-04-09T05:05:52.046Z,101852.56
2023-04-09T05:08:19.619Z,101860.56
2023-04-09T05:10:48.031Z,101862.47
2023-04-09T05:13:16.940Z,101857.06
2023-04-09T05:15:44.352Z,101860.97
2023-04-09T05:18:12.271Z,101869.03
2023-04-09T05:20:39.649Z,101873.78
2023-04-09T05:23:10.250Z,101877.00
2023-04-09T05:25:41.549Z,101876.84
2023-04-09T05:28:11.471Z,101877.81
2023-04-09T05:30:38.878Z,101888.50
2023-04-09T05:33:06.944Z,101887.03
2023-04-09T05:35:39.086Z,101898.13
2023-04-09T05:38:06.639Z,101898.59
2023-04-09T05:40:35.530Z,101907.72
2023-04-09T05:43:03.105Z,101905.66
2023-04-09T05:45:33.111Z,101915.38
2023-04-09T05:48:02.358Z,101913.38
2023-04-09T05:50:30.138Z,101911.41
2023-04-09T05:53:00.976Z,101914.66
2023-04-09T05:55:28.441Z,101914.97
2023-04-09T05:57:55.898Z,101909.63
2023-04-09T06:00:25.109Z,101916.03
2023-04-09T06:02:53.060Z,101917.94
2023-04-09T06:05:20.492Z,101914.81
2023-04-09T06:07:52.617Z,101914.03
2023-04-09T06:10:20.346Z,101918.16
2023-04-09T06:12:47.907Z,101924.63
2023-04-09T06:15:17.385Z,101915.47
2023-04-09T06:17:46.546Z,101922.69
2023-04-09T06:20:14.432Z,101920.53
2023-04-09T06:22:42.134Z,101920.69
2023-04-09T06:25:10.049Z,101926.00
2023-04-09T06:27:37.542Z,101928.41
2023-04-09T06:30:08.509Z,101927.38
2023-04-09T06:32:46.825Z,101917.19
2023-04-09T06:35:18.660Z,101921.31
2023-04-09T06:37:46.586Z,101930.56
2023-04-09T06:40:14.843Z,101928.94
2023-04-09T06:42:42.230Z,101929.84
2023-04-09T06:45:10.384Z,101931.84
2023-04-09T06:47:37.913Z,101924.94
2023-04-09T06:50:08.266Z,101932.06
2023-04-09T06:52:35.985Z,101928.69
2023-04-09T06:55:03.443Z,101933.84
2023-04-09T06:57:32.502Z,101935.31
2023-04-09T07:00:00.190Z,101931.47
2023-04-09T07:02:47.686Z,101929.28
2023-04-09T07:05:15.552Z,101930.50
2023-04-09T07:07:43.312Z,101929.66
2023-04-09T07:10:12.682Z,101941.47
2023-04-09T07:12:41.201Z,101941.13
2023-04-09T07:15:09.411Z,101943.19
2023-04-09T07:17:36.986Z,101940.81
2023-04-09T07:20:05.515Z,101946.72
2023-04-09T07:22:33.217Z,101944.69
2023-04-09T07:25:10.131Z,101947.91
2023-04-09T07:27:38.237Z,101946.03
2023-04-09T07:30:06.250Z,101942.84
2023-04-09T07:32:33.988Z,101943.16
2023-04-09T07:35:03.335Z,101947.53
2023-04-09T07:37:32.161Z,101945.50
2023-04-09T07:39:59.602Z,101942.81
2023-04-09T07:42:27.476Z,101951.78
2023-04-09T07:44:54.987Z,101946.66
2023-04-09T07:47:24.410Z,101953.63
2023-04-09T07:49:53.205Z,101954.31
2023-04-09T07:52:21.025Z,101954.63
2023-04-09T07:54:48.394Z,101954.66
2023-04-09T07:57:16.107Z,101962.59
2023-04-09T07:59:43.644Z,101957.69
2023-04-09T08:02:15.423Z,101968.81
2023-04-09T08:04:43.332Z,101971.53
2023-04-09T08:07:11.558Z,101974.75
2023-04-09T08:09:41.104Z,101974.88
2023-04-09T08:12:08.642Z,101974.59
2023-04-09T08:14:41.433Z,101975.56
2023-04-09T08:17:10.681Z,101974.91
2023-04-09T08:19:41.895Z,101976.38
2023-04-09T08:22:13.639Z,101974.84
2023-04-09T08:24:43.440Z,101978.47
2023-04-09T08:27:11.206Z,101978.22
2023-04-09T08:29:42.717Z,101969.97
2023-04-09T08:32:10.752Z,101974.44
2023-04-09T08:34:38.181Z,101964.94
2023-04-09T08:37:06.446Z,101975.09
2023-04-09T08:39:34.329Z,101969.34
2023-04-09T08:42:02.723Z,101973.97
2023-04-09T08:44:30.797Z,101974.47
2023-04-09T08:47:00.591Z,101980.75
2023-04-09T08:49:28.063Z,101969.25
2023-04-09T08:51:55.855Z,101969.84
2023-04-09T08:54:26.754Z,101972.75
2023-04-09T08:56:54.427Z,101972.38
2023-04-09T08:59:22.083Z,101983.44
2023-04-09T09:02:06.606Z,101976.09
2023-04-09T09:04:51.009Z,101973.72
2023-04-09T09:07:19.421Z,101972.88
2023-04-09T09:09:58.056Z,101966.72
2023-04-09T09:12:41.623Z,101972.72
2023-04-09T09:15:30.018Z,101974.78
2023-04-09T09:18:00.776Z,101972.56
2023-04-09T09:20:29.370Z,101966.06
2023-04-09T09:22:57.794Z,101979.84
2023-04-09T09:25:26.391Z,101970.50
2023-04-09T09:27:55.432Z,101970.19
2023-04-09T09:30:27.656Z,101970.25
2023-04-09T09:33:13.550Z,101959.00
2023-04-09T09:35:51.576Z,101964.00
2023-04-09T09:38:19.155Z,101971.53
2023-04-09T09:40:50.372Z,101961.47
2023-04-09T09:43:19.314Z,101958.75
2023-04-09T09:45:48.077Z,101957.53
2023-04-09T09:48:18.069Z,101963.97
2023-04-09T09:50:49.031Z,101960.00
2023-04-09T09:53:23.095Z,101961.22
2023-04-09T09:55:57.309Z,101958.56
2023-04-09T09:58:33.766Z,101963.16
2023-04-09T10:01:03.562Z,101953.09
2023-04-09T10:03:34.936Z,101947.84
2023-04-09T10:06:03.468Z,101946.91
2023-04-09T10:08:33.523Z,101941.84
2023-04-09T10:11:01.723Z,101949.66
2023-04-09T10:13:34.307Z,101948.75
2023-04-09T10:16:02.931Z,101945.72
2023-04-09T10:18:34.885Z,101950.63
2023-04-09T10:21:27.428Z,101950.22
2023-04-09T10:23:58.491Z,101950.03
2023-04-09T10:26:31.039Z,101953.97
2023-04-09T10:29:09.775Z,101959.69
2023-04-09T10:31:55.454Z,101955.31
2023-04-09T10:34:28.182Z,101957.00
2023-04-09T10:36:57.639Z,101960.72
2023-04-09T10:39:32.098Z,101959.38
2023-04-09T10:42:12.025Z,101964.78
2023-04-09T10:44:42.816Z,101967.84
2023-04-09T10:47:33.797Z,101969.00
2023-04-09T10:50:44.802Z,101968.81
2023-04-09T10:53:24.169Z,101963.91
2023-04-09T10:56:01.544Z,101971.84
2023-04-09T10:58:37.760Z,101962.56
2023-04-09T11:01:08.803Z,101955.66
2023-04-09T11:03:46.398Z,101957.00
2023-04-09T11:06:20.841Z,101961.38
2023-04-09T11:08:51.032Z,101957.03
2023-04-09T11:11:26.871Z,101952.44
2023-04-09T11:14:01.789Z,101955.13
2023-04-09T11:16:36.828Z,101949.75
2023-04-09T11:19:05.070Z,101943.84
2023-04-09T11:21:47.051Z,101945.88
2023-04-09T11:24:15.955Z,101953.97
2023-04-09T11:26:43.610Z,101948.25
2023-04-09T11:29:13.697Z,101948.25
2023-04-09T11:31:47.107Z,101948.25
2023-04-09T11:34:34.420Z,101945.19
2023-04-09T11:37:07.132Z,101951.09
2023-04-09T11:39:38.149Z,101950.59
2023-04-09T11:42:05.940Z,101946.22
2023-04-09T11:44:33.350Z,101944.88
2023-04-09T11:47:13.802Z,101944.88
2023-04-09T11:49:47.317Z,101944.69
2023-04-09T11:52:18.789Z,101948.56
2023-04-09T11:54:54.156Z,101946.53
2023-04-09T11:57:43.712Z,101945.53
2023-04-09T12:00:17.081Z,101948.91
2023-04-09T12:03:04.229Z,101941.81
2023-04-09T12:05:51.133Z,101943.78
2023-04-09T12:08:23.967Z,101946.91
2023-04-09T12:11:07.432Z,101939.03
2023-04-09T12:13:44.604Z,101934.31
2023-04-09T12:16:13.464Z,101937.59
2023-04-09T12:19:08.531Z,101920.03
2023-04-09T12:21:58.569Z,101928.06
2023-04-09T12:24:28.260Z,101918.78
2023-04-09T12:27:02.894Z,101928.56
2023-04-09T12:29:30.764Z,101926.34
2023-04-09T12:31:58.901Z,101921.47
2023-04-09T12:34:27.413Z,101923.56
2023-04-09T12:37:05.036Z,101926.25
2023-04-09T12:39:34.516Z,101923.00
2023-04-09T12:42:04.528Z,101919.41
2023-04-09T12:44:37.434Z,101923.13
2023-04-09T12:47:04.870Z,101914.94
2023-04-09T12:49:33.139Z,101926.22
2023-04-09T12:52:01.712Z,101933.31
2023-04-09T12:54:31.541Z,101918.50
2023-04-09T12:56:58.966Z,101932.38
2023-04-09T12:59:26.487Z,101920.34
2023-04-09T13:01:56.745Z,101915.94
2023-04-09T13:04:26.708Z,101919.00
2023-04-09T13:06:59.194Z,101911.75
2023-04-09T13:09:26.641Z,101905.81
2023-04-09T13:12:03.833Z,101902.69
2023-04-09T13:14:31.703Z,101905.00
2023-04-09T13:17:00.162Z,101916.41
2023-04-09T13:19:31.297Z,101904.47
2023-04-09T13:21:58.659Z,101904.06
2023-04-09T13:24:27.595Z,101901.81
2023-04-09T13:26:58.428Z,101908.25
2023-04-09T13:29:32.026Z,101901.16
2023-04-09T13:32:11.305Z,101902.56
2023-04-09T13:34:40.865Z,101900.91
2023-04-09T13:37:08.695Z,101901.91
2023-04-09T13:39:39.352Z,101901.25
2023-04-09T13:42:13.720Z,101899.56
2023-04-09T13:44:44.855Z,101899.50
2023-04-09T13:47:13.754Z,101898.19
2023-04-09T13:49:42.520Z,101896.91
2023-04-09T13:52:11.902Z,101899.09
2023-04-09T13:54:40.550Z,101890.31
2023-04-09T13:57:08.063Z,101893.88
2023-04-09T13:59:38.209Z,101898.94
2023-04-09T14:02:05.732Z,101899.97
2023-04-09T14:04:33.457Z,101897.22
2023-04-09T14:07:01.914Z,101898.09
2023-04-09T14:09:30.357Z,101894.91
2023-04-09T14:11:59.701Z,101897.41
2023-04-09T14:14:29.996Z,101897.78
2023-04-09T14:16:57.653Z,101903.66
2023-04-09T14:19:25.132Z,101902.34
2023-04-09T14:21:55.732Z,101902.16
2023-04-09T14:24:23.543Z,101904.19
2023-04-09T14:26:53.685Z,101902.84
2023-04-09T14:29:24.752Z,101903.00
2023-04-09T14:31:53.520Z,101893.19
2023-04-09T14:34:31.392Z,101891.19
2023-04-09T14:36:58.805Z,101891.50
2023-04-09T14:39:27.647Z,101887.31
2023-04-09T14:41:57.456Z,101882.72
2023-04-09T14:44:27.478Z,101885.94
2023-04-09T14:47:08.117Z,101893.06
2023-04-09T14:49:54.044Z,101887.66
2023-04-09T14:52:25.988Z,101889.16
2023-04-09T14:55:13.264Z,101896.59
2023-04-09T14:57:42.536Z,101887.28
2023-04-09T15:00:12.282Z,101895.22
2023-04-09T15:02:40.190Z,101893.88
2023-04-09T15:05:08.837Z,101900.63
2023-04-09T15:07:39.682Z,101898.94
2023-04-09T15:10:13.378Z,101895.72
2023-04-09T15:12:43.569Z,101897.91
2023-04-09T15:15:18.365Z,101889.81
2023-04-09T15:17:49.828Z,101899.47
2023-04-09T15:20:18.504Z,101890.00
2023-04-09T15:23:06.013Z,101886.28
2023-04-09T15:25:40.884Z,101888.16
2023-04-09T15:28:15.546Z,101889.00
2023-04-09T15:30:46.431Z,101887.47
2023-04-09T15:33:14.424Z,101895.59
2023-04-09T15:35:43.560Z,101886.28
2023-04-09T15:38:15.619Z,101893.53
2023-04-09T15:41:01.265Z,101888.47
2023-04-09T15:43:28.620Z,101891.50
2023-04-09T15:45:58.588Z,101891.50
2023-04-09T15:48:31.174Z,101887.09
2023-04-09T15:51:17.954Z,101889.97
2023-04-09T15:53:47.498Z,101885.41
2023-04-09T15:56:16.112Z,101877.50
2023-04-09T15:58:43.537Z,101881.38
2023-04-09T16:01:12.922Z,101881.91
2023-04-09T16:03:52.020Z,101888.63
2023-04-09T16:06:19.911Z,101883.41
2023-04-09T16:09:05.506Z,101885.63
2023-04-09T16:11:37.575Z,101883.41
2023-04-09T16:14:10.627Z,101885.78
2023-04-09T16:16:45.863Z,101881.19
2023-04-09T16:19:14.879Z,101879.69
2023-04-09T16:21:44.802Z,101881.91
2023-04-09T16:24:14.919Z,101883.75
2023-04-09T16:26:43.916Z,101881.41
2023-04-09T16:29:13.335Z,101890.69
2023-04-09T16:31:44.894Z,101883.41
2023-04-09T16:34:12.367Z,101885.41
2023-04-09T16:36:47.016Z,101890.97
2023-04-09T16:39:15.620Z,101889.13
2023-04-09T16:41:47.194Z,101887.75
2023-04-09T16:44:19.411Z,101898.75
2023-04-09T16:46:49.211Z,101897.94
2023-04-09T16:49:20.855Z,101896.91
2023-04-09T16:51:51.909Z,101899.94
2023-04-09T16:54:23.033Z,101908.53
2023-04-09T16:56:53.440Z,101898.56
2023-04-09T16:59:21.215Z,101903.56
2023-04-09T17:01:49.409Z,101888.13
2023-04-09T17:04:18.010Z,101904.88
2023-04-09T17:06:45.994Z,101893.34
2023-04-09T17:09:14.511Z,101899.81
2023-04-09T17:11:46.251Z,101896.88
2023-04-09T17:14:16.634Z,101897.94
2023-04-09T17:16:45.278Z,101902.88
2023-04-09T17:19:13.934Z,101901.34
2023-04-09T17:21:42.386Z,101899.81
2023-04-09T17:24:09.956Z,101902.88
2023-04-09T17:26:37.754Z,101913.34
2023-04-09T17:29:07.087Z,101906.38
2023-04-09T17:31:35.136Z,101914.81
2023-04-09T17:34:19.645Z,101918.41
2023-04-09T17:36:49.834Z,101927.94
2023-04-09T17:39:25.287Z,101930.03
2023-04-09T17:41:58.237Z,101922.00
2023-04-09T17:44:35.136Z,101933.31
2023-04-09T17:47:07.583Z,101931.41
2023-04-09T17:49:35.171Z,101925.03
2023-04-09T17:52:07.613Z,101934.88
2023-04-09T17:54:35.406Z,101934.53
2023-04-09T17:57:04.355Z,101931.28
2023-04-09T17:59:34.766Z,101937.19
2023-04-09T18:02:16.581Z,101930.09
2023-04-09T18:04:44.471Z,101928.72
2023-04-09T18:07:12.215Z,101928.22
2023-04-09T18:09:42.076Z,101935.78
2023-04-09T18:12:09.545Z,101933.72
2023-04-09T18:14:49.277Z,101927.84
2023-04-09T18:17:27.548Z,101926.63
2023-04-09T18:19:58.272Z,101922.53
2023-04-09T18:22:27.548Z,101932.94
2023-04-09T18:25:00.231Z,101932.81
2023-04-09T18:27:29.626Z,101933.34
2023-04-09T18:29:59.452Z,101935.94
2023-04-09T18:32:26.995Z,101938.38
2023-04-09T18:34:54.450Z,101940.41
2023-04-09T18:37:22.421Z,101937.00
2023-04-09T18:39:54.646Z,101942.59
2023-04-09T18:42:22.016Z,101948.38
2023-04-09T18:44:50.136Z,101942.44
2023-04-09T18:47:18.518Z,101945.25
2023-04-09T18:49:46.599Z,101948.69
2023-04-09T18:52:16.963Z,101954.47
2023-04-09T18:54:51.032Z,101945.38
2023-04-09T18:57:18.961Z,101942.22
2023-04-09T18:59:46.706Z,101944.28
2023-04-09T19:02:14.254Z,101946.97
2023-04-09T19:04:42.176Z,101939.44
2023-04-09T19:07:09.746Z,101941.91
2023-04-09T19:09:37.536Z,101938.22
2023-04-09T19:12:06.705Z,101937.47
2023-04-09T19:14:36.491Z,101935.91
2023-04-09T19:17:03.879Z,101934.88
2023-04-09T19:19:34.031Z,101929.84
2023-04-09T19:22:02.296Z,101935.88
2023-04-09T19:24:29.947Z,101933.25
2023-04-09T19:26:58.040Z,101936.75
2023-04-09T19:29:25.633Z,101936.09
2023-04-09T19:31:53.216Z,101937.38
2023-04-09T19:34:21.041Z,101935.47
2023-04-09T19:36:48.524Z,101942.13
2023-04-09T19:39:16.495Z,101930.41
2023-04-09T19:41:44.167Z,101939.94
2023-04-09T19:44:13.397Z,101933.66
2023-04-09T19:46:41.094Z,101937.34
2023-04-09T19:49:08.603Z,101927.00
2023-04-09T19:51:37.491Z,101930.66
2023-04-09T19:54:06.466Z,101928.69
2023-04-09T19:56:39.877Z,101934.09
2023-04-09T19:59:07.588Z,101928.56
2023-04-09T20:01:35.248Z,101931.44
2023-04-09T20:04:02.986Z,101925.72
2023-04-09T20:06:30.869Z,101923.72
2023-04-09T20:08:58.202Z,101926.56
2023-04-09T20:11:27.311Z,101927.84
2023-04-09T20:13:55.122Z,101928.28
2023-04-09T20:16:23.844Z,101931.84
2023-04-09T20:18:51.420Z,101931.97
2023-04-09T20:21:21.138Z,101932.72
2023-04-09T20:23:48.647Z,101930.50
2023-04-09T20:26:19.700Z,101933.13
2023-04-09T20:28:47.820Z,101926.88
2023-04-09T20:31:15.320Z,101934.50
2023-04-09T20:33:42.729Z,101929.09
2023-04-09T20:36:19.913Z,101927.84
2023-04-09T20:38:54.607Z,101923.16
2023-04-09T20:41:22.757Z,101932.72
2023-04-09T20:43:50.481Z,101930.66
2023-04-09T20:46:21.496Z,101930.13
2023-04-09T20:48:48.899Z,101929.84
2023-04-09T20:51:16.273Z,101927.19
2023-04-09T20:53:45.547Z,101924.53
2023-04-09T20:56:13.301Z,101918.22
2023-04-09T20:58:42.055Z,101920.44
2023-04-09T21:01:10.038Z,101916.19
2023-04-09T21:03:38.239Z,101924.38
2023-04-09T21:06:08.420Z,101917.34
2023-04-09T21:08:37.374Z,101919.34
2023-04-09T21:11:05.065Z,101915.81
2023-04-09T21:13:40.349Z,101917.38
2023-04-09T21:16:15.060Z,101909.59
2023-04-09T21:18:42.486Z,101912.44
2023-04-09T21:21:10.394Z,101909.72
2023-04-09T21:23:38.013Z,101909.03
2023-04-09T21:26:05.611Z,101898.75
2023-04-09T21:28:33.149Z,101909.28
2023-04-09T21:31:00.750Z,101905.19
2023-04-09T21:33:29.990Z,101902.91
2023-04-09T21:35:59.646Z,101906.59
2023-04-09T21:38:27.544Z,101907.88
2023-04-09T21:40:54.970Z,101909.53
2023-04-09T21:43:22.689Z,101902.91
2023-04-09T21:45:50.223Z,101909.91
2023-04-09T21:48:18.220Z,101913.97
2023-04-09T21:50:46.512Z,101910.91
2023-04-09T21:53:15.710Z,101906.88
2023-04-09T21:55:43.322Z,101908.13
2023-04-09T21:58:12.037Z,101902.44
2023-04-09T22:00:39.828Z,101899.91
2023-04-09T22:03:07.611Z,101900.31
2023-04-09T22:05:35.999Z,101893.50
2023-04-09T22:08:03.788Z,101892.44
2023-04-09T22:10:31.653Z,101893.22
2023-04-09T22:13:09.988Z,101894.91
2023-04-09T22:15:37.828Z,101895.34
2023-04-09T22:18:05.282Z,101890.34
2023-04-09T22:20:36.298Z,101891.34
2023-04-09T22:23:04.909Z,101893.25
2023-04-09T22:25:35.078Z,101892.56
2023-04-09T22:28:05.936Z,101892.56
2023-04-09T22:30:33.626Z,101900.63
2023-04-09T22:33:06.429Z,101902.41
2023-04-09T22:35:34.966Z,101901.63
2023-04-09T22:38:03.377Z,101906.22
2023-04-09T22:40:30.991Z,101901.69
2023-04-09T22:42:58.380Z,101900.88
2023-04-09T22:45:27.926Z,101905.88
2023-04-09T22:47:55.860Z,101899.94
2023-04-09T22:50:26.397Z,101903.00
2023-04-09T22:52:54.700Z,101894.25
2023-04-09T22:55:23.515Z,101900.03
2023-04-09T22:57:51.445Z,101901.63
2023-04-09T23:00:19.213Z,101889.72
2023-04-09T23:02:47.597Z,101891.16
2023-04-09T23:05:15.616Z,101894.53
2023-04-09T23:07:45.136Z,101898.72
2023-04-09T23:10:16.216Z,101890.34
2023-04-09T23:12:58.894Z,101889.56
2023-04-09T23:15:27.679Z,101890.94
2023-04-09T23:17:55.741Z,101883.50
2023-04-09T23:20:23.721Z,101887.41
2023-04-09T23:22:51.312Z,101883.00
2023-04-09T23:25:25.797Z,101885.41
2023-04-09T23:27:53.341Z,101882.72
2023-04-09T23:30:21.928Z,101881.53
2023-04-09T23:32:53.843Z,101878.72
2023-04-09T23:35:22.493Z,101871.72
2023-04-09T23:37:56.155Z,101878.41
2023-04-09T23:40:23.831Z,101878.72
2023-04-09T23:42:51.323Z,101875.09
2023-04-09T23:45:23.321Z,101868.63
2023-04-09T23:47:51.050Z,101878.13
2023-04-09T23:50:24.616Z,101881.22
2023-04-09T23:52:52.157Z,101875.25
2023-04-09T23:55:19.981Z,101873.16
2023-04-09T23:57:48.067Z,101878.28
